Time;durP1;ratioP1;P1;durP2;ratioP2;P2;SDS_P1;SDS_P2;PMS_P1;PMS_P2;Temp;Humidity;BMP_temperature;BMP_pressure;BME280_temperature;BME280_humidity;BME280_pressure;Samples;Min_cycle;Max_cycle;Signal;HPM_P1;HPM_P2
2023/08/29 00:01:48;;;;;;;5.55;4.25;;;;;;;;;;5072030;28;20094;-69
2023/08/29 00:04:15;;;;;;;8.93;4.80;;;;;;;;;;5072100;28;20490;-69
2023/08/29 00:06:43;;;;;;;7.18;4.47;;;;;;;;;;5072063;28;20047;-69
2023/08/29 00:09:10;;;;;;;8.93;4.80;;;;;;;;;;5072056;28;20509;-69
2023/08/29 00:11:38;;;;;;;7.50;4.70;;;;;;;;;;5071977;28;20040;-69
2023/08/29 00:14:06;;;;;;;8.40;4.50;;;;;;;;;;5071992;28;20040;-69
2023/08/29 00:16:33;;;;;;;12.23;5.10;;;;;;;;;;5072009;28;20045;-69
2023/08/29 00:19:01;;;;;;;6.45;4.53;;;;;;;;;;5072092;28;20052;-70
2023/08/29 00:21:29;;;;;;;8.43;4.45;;;;;;;;;;5070680;28;20044;-69
2023/08/29 00:23:56;;;;;;;9.23;4.50;;;;;;;;;;5071753;28;20055;-70
2023/08/29 00:26:24;;;;;;;6.65;4.40;;;;;;;;;;5071841;28;20040;-70
2023/08/29 00:28:53;;;;;;;9.75;5.15;;;;;;;;;;5071932;28;20135;-70
2023/08/29 00:31:21;;;;;;;8.15;4.65;;;;;;;;;;5070463;28;20044;-70
2023/08/29 00:33:49;;;;;;;9.00;4.65;;;;;;;;;;5070608;28;20119;-70
2023/08/29 00:36:16;;;;;;;9.30;4.80;;;;;;;;;;5070467;28;20486;-70
2023/08/29 00:38:44;;;;;;;9.90;5.20;;;;;;;;;;5073335;28;20044;-71
2023/08/29 00:41:12;;;;;;;7.82;4.85;;;;;;;;;;5073888;28;20049;-70
2023/08/29 00:43:40;;;;;;;8.93;5.03;;;;;;;;;;5073990;28;20044;-70
2023/08/29 00:46:07;;;;;;;8.80;4.82;;;;;;;;;;5075488;28;20036;-70
2023/08/29 00:48:35;;;;;;;5.30;4.22;;;;;;;;;;5073890;28;20092;-70
2023/08/29 00:51:03;;;;;;;8.02;4.90;;;;;;;;;;5075022;28;20060;-70
2023/08/29 00:53:35;;;;;;;8.40;4.50;;;;;;;;;;5074793;28;20094;-70
2023/08/29 00:56:02;;;;;;;7.57;4.70;;;;;;;;;;5075198;28;20055;-70
2023/08/29 00:58:31;;;;;;;10.02;4.78;;;;;;;;;;5074834;28;20098;-70
2023/08/29 01:00:58;;;;;;;8.13;4.93;;;;;;;;;;5073801;28;20037;-69
2023/08/29 01:03:26;;;;;;;8.35;4.75;;;;;;;;;;5074781;28;20512;-70
2023/08/29 01:05:54;;;;;;;8.00;4.60;;;;;;;;;;5074687;28;20063;-70
2023/08/29 01:08:22;;;;;;;8.27;4.78;;;;;;;;;;5074930;28;20048;-70
2023/08/29 01:11:02;;;;;;;8.30;4.80;;;;;;;;;;5073463;28;20090;-70
2023/08/29 01:13:51;;;;;;;8.93;5.00;;;;;;;;;;5073443;28;20048;-70
2023/08/29 01:16:25;;;;;;;11.70;5.28;;;;;;;;;;5074652;28;21082;-71
2023/08/29 01:18:54;;;;;;;7.43;4.60;;;;;;;;;;5074685;28;20468;-70
2023/08/29 01:21:40;;;;;;;11.85;4.90;;;;;;;;;;5073319;28;20045;-70
2023/08/29 01:24:17;;;;;;;11.30;4.70;;;;;;;;;;5072904;28;20056;-70
2023/08/29 01:26:45;;;;;;;8.50;4.40;;;;;;;;;;5073180;28;20067;-70
2023/08/29 01:29:13;;;;;;;9.10;4.68;;;;;;;;;;5072963;28;20051;-70
2023/08/29 01:31:41;;;;;;;11.32;4.60;;;;;;;;;;5073155;28;20051;-70
2023/08/29 01:34:08;;;;;;;8.77;4.90;;;;;;;;;;5074282;28;20486;-70
2023/08/29 01:36:39;;;;;;;10.43;4.40;;;;;;;;;;5072991;28;20064;-70
2023/08/29 01:39:07;;;;;;;8.07;4.40;;;;;;;;;;5074130;28;20051;-70
2023/08/29 01:41:35;;;;;;;7.13;4.80;;;;;;;;;;5072919;28;20509;-70
2023/08/29 01:44:03;;;;;;;8.35;4.68;;;;;;;;;;5072834;28;20059;-70
2023/08/29 01:46:33;;;;;;;8.07;4.50;;;;;;;;;;5074233;28;20044;-70
2023/08/29 01:49:02;;;;;;;10.00;5.22;;;;;;;;;;5072748;28;20494;-70
2023/08/29 01:51:29;;;;;;;10.82;5.03;;;;;;;;;;5074087;28;20428;-70
2023/08/29 01:53:57;;;;;;;8.30;5.15;;;;;;;;;;5072526;28;20051;-70
2023/08/29 01:56:28;;;;;;;8.63;5.60;;;;;;;;;;5074149;28;20067;-70
2023/08/29 01:58:57;;;;;;;9.38;6.20;;;;;;;;;;5056239;28;20056;-70
2023/08/29 02:01:25;;;;;;;10.27;5.68;;;;;;;;;;5056048;28;20086;-70
2023/08/29 02:03:52;;;;;;;9.13;5.78;;;;;;;;;;5072514;28;20048;-70
2023/08/29 02:06:20;;;;;;;9.20;5.88;;;;;;;;;;5073823;28;20040;-70
2023/08/29 02:08:48;;;;;;;7.20;5.28;;;;;;;;;;5072356;28;20040;-71
2023/08/29 02:11:15;;;;;;;8.43;5.07;;;;;;;;;;5073461;28;20049;-70
2023/08/29 02:13:43;;;;;;;11.05;5.47;;;;;;;;;;5072390;28;20557;-70
2023/08/29 02:16:11;;;;;;;12.68;5.03;;;;;;;;;;5073770;28;20036;-70
2023/08/29 02:18:39;;;;;;;8.32;5.10;;;;;;;;;;5072684;28;20143;-70
2023/08/29 02:21:06;;;;;;;11.48;4.90;;;;;;;;;;5071941;28;20045;-70
2023/08/29 02:23:34;;;;;;;6.95;4.65;;;;;;;;;;5073136;28;20057;-70
2023/08/29 02:26:02;;;;;;;10.30;5.15;;;;;;;;;;5073559;28;20050;-70
2023/08/29 02:28:39;;;;;;;8.27;5.03;;;;;;;;;;5073317;28;20044;-70
2023/08/29 02:31:08;;;;;;;9.20;4.82;;;;;;;;;;5073329;28;20053;-70
2023/08/29 02:33:39;;;;;;;6.18;4.57;;;;;;;;;;5073439;28;20036;-70
2023/08/29 02:36:07;;;;;;;8.35;4.85;;;;;;;;;;5055214;28;20477;-70
2023/08/29 02:38:35;;;;;;;11.10;4.80;;;;;;;;;;5073017;28;20068;-71
2023/08/29 02:41:03;;;;;;;6.13;4.75;;;;;;;;;;5071839;28;20501;-71
2023/08/29 02:43:32;;;;;;;5.90;4.68;;;;;;;;;;5073145;28;20087;-70
2023/08/29 02:45:59;;;;;;;8.43;5.35;;;;;;;;;;5071556;28;20131;-70
2023/08/29 02:48:27;;;;;;;7.70;4.90;;;;;;;;;;5073244;28;20044;-70
2023/08/29 02:50:55;;;;;;;7.05;4.72;;;;;;;;;;5072994;28;20037;-70
2023/08/29 02:53:23;;;;;;;6.80;5.15;;;;;;;;;;5071499;28;20098;-70
2023/08/29 02:55:51;;;;;;;7.57;5.18;;;;;;;;;;5071396;28;20144;-70
2023/08/29 02:58:19;;;;;;;9.00;5.00;;;;;;;;;;5071676;28;20052;-70
2023/08/29 03:00:47;;;;;;;10.65;5.53;;;;;;;;;;5072249;28;20067;-70
2023/08/29 03:03:16;;;;;;;9.38;5.30;;;;;;;;;;5071493;28;20048;-70
2023/08/29 03:05:53;;;;;;;8.23;5.00;;;;;;;;;;5072625;28;20064;-70
2023/08/29 03:08:21;;;;;;;11.48;5.38;;;;;;;;;;5071414;28;20056;-70
2023/08/29 03:10:49;;;;;;;8.63;5.38;;;;;;;;;;5072644;28;20048;-70
2023/08/29 03:13:18;;;;;;;9.95;5.68;;;;;;;;;;5071095;28;20089;-71
2023/08/29 03:15:46;;;;;;;7.90;5.07;;;;;;;;;;5071301;28;20729;-70
2023/08/29 03:18:14;;;;;;;12.57;5.22;;;;;;;;;;5072618;28;20056;-71
2023/08/29 03:20:43;;;;;;;8.95;4.97;;;;;;;;;;5071296;28;20059;-70
2023/08/29 03:23:11;;;;;;;15.45;5.78;;;;;;;;;;5070924;28;20093;-70
2023/08/29 03:25:39;;;;;;;10.93;4.95;;;;;;;;;;5054724;28;20051;-70
2023/08/29 03:28:06;;;;;;;12.63;6.65;;;;;;;;;;5071116;28;20036;-70
2023/08/29 03:30:35;;;;;;;13.73;5.43;;;;;;;;;;5070866;28;20044;-70
2023/08/29 03:33:02;;;;;;;11.40;5.63;;;;;;;;;;5072422;28;20461;-70
2023/08/29 03:35:30;;;;;;;9.32;5.85;;;;;;;;;;5071120;28;20048;-70
2023/08/29 03:37:59;;;;;;;10.63;5.40;;;;;;;;;;5071086;28;20045;-70
2023/08/29 03:40:26;;;;;;;8.10;5.05;;;;;;;;;;5072510;28;20052;-70
2023/08/29 03:42:54;;;;;;;7.82;5.30;;;;;;;;;;5054377;28;20436;-70
2023/08/29 03:45:21;;;;;;;11.38;5.47;;;;;;;;;;5071120;28;20049;-70
2023/08/29 03:47:49;;;;;;;14.90;6.38;;;;;;;;;;5070987;28;20098;-70
2023/08/29 03:50:21;;;;;;;11.80;6.18;;;;;;;;;;5071052;28;20049;-70
2023/08/29 03:52:49;;;;;;;10.00;5.85;;;;;;;;;;5070860;28;20603;-71
2023/08/29 03:55:17;;;;;;;12.63;5.88;;;;;;;;;;5070873;28;20083;-70
2023/08/29 03:57:44;;;;;;;9.45;5.45;;;;;;;;;;5070669;28;20073;-70
2023/08/29 04:00:13;;;;;;;11.00;5.28;;;;;;;;;;5087284;28;20529;-70
2023/08/29 04:02:42;;;;;;;9.93;5.63;;;;;;;;;;5089593;28;20080;-69
2023/08/29 04:05:17;;;;;;;16.65;5.10;;;;;;;;;;5089132;28;20040;-70
2023/08/29 04:07:47;;;;;;;13.70;5.30;;;;;;;;;;5090487;28;20044;-70
2023/08/29 04:10:15;;;;;;;8.50;5.65;;;;;;;;;;5091231;28;20437;-71
2023/08/29 04:12:43;;;;;;;9.23;5.13;;;;;;;;;;5092205;28;20102;-70
2023/08/29 04:15:12;;;;;;;7.38;5.38;;;;;;;;;;5094872;28;20046;-69
2023/08/29 04:17:40;;;;;;;19.92;5.80;;;;;;;;;;5111780;28;20067;-70
2023/08/29 04:20:09;;;;;;;7.85;4.90;;;;;;;;;;5094837;28;20036;-70
2023/08/29 04:22:38;;;;;;;10.27;5.57;;;;;;;;;;5094497;28;20549;-70
2023/08/29 04:25:06;;;;;;;9.70;5.97;;;;;;;;;;5094337;28;20101;-70
2023/08/29 04:27:35;;;;;;;9.20;5.38;;;;;;;;;;5094584;28;20052;-70
2023/08/29 04:30:03;;;;;;;11.65;5.72;;;;;;;;;;5094457;28;20048;-70
2023/08/29 04:32:34;;;;;;;13.68;5.80;;;;;;;;;;5095761;28;20032;-70
2023/08/29 04:35:02;;;;;;;12.70;5.35;;;;;;;;;;5094238;28;20044;-71
2023/08/29 04:37:30;;;;;;;8.63;5.38;;;;;;;;;;5094313;28;20058;-70
2023/08/29 04:39:58;;;;;;;15.07;5.47;;;;;;;;;;5094389;28;20139;-70
2023/08/29 04:42:26;;;;;;;13.05;6.07;;;;;;;;;;5095611;28;20051;-70
2023/08/29 04:44:55;;;;;;;12.70;6.00;;;;;;;;;;5094140;28;20051;-70
2023/08/29 04:47:23;;;;;;;11.73;5.43;;;;;;;;;;5095403;28;20032;-70
2023/08/29 04:49:50;;;;;;;8.80;5.50;;;;;;;;;;5094132;28;20044;-70
2023/08/29 04:52:18;;;;;;;13.75;5.53;;;;;;;;;;5111174;28;20119;-70
2023/08/29 04:54:46;;;;;;;10.55;5.40;;;;;;;;;;5094013;28;20448;-70
2023/08/29 04:57:13;;;;;;;15.23;5.75;;;;;;;;;;5093918;28;20044;-70
2023/08/29 04:59:41;;;;;;;28.85;7.72;;;;;;;;;;5094016;28;20067;-70
2023/08/29 05:02:09;;;;;;;12.88;5.72;;;;;;;;;;5094002;28;20138;-70
2023/08/29 05:04:38;;;;;;;8.98;5.65;;;;;;;;;;5093960;28;20044;-70
2023/08/29 05:07:06;;;;;;;12.05;5.40;;;;;;;;;;5093994;28;20082;-71
2023/08/29 05:09:33;;;;;;;8.93;5.60;;;;;;;;;;5094051;28;20131;-71
2023/08/29 05:12:01;;;;;;;10.15;5.20;;;;;;;;;;5093950;28;20063;-71
2023/08/29 05:14:29;;;;;;;14.73;5.05;;;;;;;;;;5111088;28;20052;-71
2023/08/29 05:16:56;;;;;;;14.00;5.40;;;;;;;;;;5095406;28;20044;-71
2023/08/29 05:19:24;;;;;;;9.95;5.10;;;;;;;;;;5094132;28;20537;-71
2023/08/29 05:21:52;;;;;;;9.80;5.80;;;;;;;;;;5093650;28;20040;-71
2023/08/29 05:24:20;;;;;;;7.28;5.15;;;;;;;;;;5092899;28;20106;-71
2023/08/29 05:26:48;;;;;;;10.32;5.18;;;;;;;;;;5093665;28;20032;-72
2023/08/29 05:29:16;;;;;;;8.18;4.95;;;;;;;;;;5094955;28;20409;-72
2023/08/29 05:31:43;;;;;;;10.80;5.10;;;;;;;;;;5094702;28;20028;-73
2023/08/29 05:34:11;;;;;;;8.38;5.18;;;;;;;;;;5094670;28;20456;-71
2023/08/29 05:36:38;;;;;;;9.48;5.20;;;;;;;;;;5094619;28;20051;-72
2023/08/29 05:39:06;;;;;;;12.13;5.00;;;;;;;;;;5094283;28;20044;-71
2023/08/29 05:41:33;;;;;;;7.18;5.07;;;;;;;;;;5094406;28;20043;-72
2023/08/29 05:44:01;;;;;;;9.48;5.25;;;;;;;;;;5094649;28;20071;-72
2023/08/29 05:46:28;;;;;;;8.32;4.93;;;;;;;;;;5094329;28;20043;-72
2023/08/29 05:48:58;;;;;;;9.27;5.03;;;;;;;;;;5094309;28;20448;-72
2023/08/29 05:51:26;;;;;;;8.63;5.05;;;;;;;;;;5094226;28;20047;-72
2023/08/29 05:53:54;;;;;;;8.45;5.00;;;;;;;;;;5094183;28;20036;-71
2023/08/29 05:56:22;;;;;;;9.05;5.32;;;;;;;;;;5094095;28;20066;-72
2023/08/29 05:58:49;;;;;;;9.18;5.57;;;;;;;;;;5094081;28;20032;-73
2023/08/29 06:01:17;;;;;;;7.53;4.85;;;;;;;;;;5092886;28;20055;-72
2023/08/29 06:03:44;;;;;;;10.25;4.60;;;;;;;;;;5093952;28;20042;-72
2023/08/29 06:06:12;;;;;;;8.95;4.60;;;;;;;;;;5094103;28;20097;-72
2023/08/29 06:08:40;;;;;;;9.27;4.85;;;;;;;;;;5093842;28;20036;-71
2023/08/29 06:11:08;;;;;;;9.20;5.00;;;;;;;;;;5093918;28;20581;-71
2023/08/29 06:13:35;;;;;;;10.18;4.43;;;;;;;;;;5093811;28;20044;-72
2023/08/29 06:16:03;;;;;;;7.25;4.15;;;;;;;;;;5093841;28;20067;-72
2023/08/29 06:18:33;;;;;;;7.15;3.70;;;;;;;;;;5093973;28;20363;-72
2023/08/29 06:21:02;;;;;;;9.68;4.40;;;;;;;;;;5093686;28;20040;-72
2023/08/29 06:23:30;;;;;;;11.00;4.25;;;;;;;;;;5093478;28;20040;-70
2023/08/29 06:25:57;;;;;;;9.30;4.00;;;;;;;;;;5092407;28;20055;-70
2023/08/29 06:28:24;;;;;;;8.40;4.65;;;;;;;;;;5093153;28;20040;-69
2023/08/29 06:30:52;;;;;;;14.82;4.47;;;;;;;;;;5093426;28;20087;-68
2023/08/29 06:33:20;;;;;;;13.13;4.00;;;;;;;;;;5091909;28;20524;-70
2023/08/29 06:35:48;;;;;;;11.57;4.10;;;;;;;;;;5091245;28;20048;-69
2023/08/29 06:38:16;;;;;;;10.50;4.13;;;;;;;;;;5093359;28;20086;-68
2023/08/29 06:40:43;;;;;;;11.13;4.63;;;;;;;;;;5092512;28;20040;-70
2023/08/29 06:43:11;;;;;;;10.48;3.83;;;;;;;;;;5092185;28;20036;-71
2023/08/29 06:45:38;;;;;;;11.50;4.22;;;;;;;;;;5092205;28;20118;-71
2023/08/29 06:48:06;;;;;;;12.05;4.43;;;;;;;;;;5092560;28;20046;-72
2023/08/29 06:50:34;;;;;;;12.88;4.95;;;;;;;;;;5092286;28;20054;-71
2023/08/29 06:53:03;;;;;;;7.43;3.67;;;;;;;;;;5093094;28;20453;-71
2023/08/29 06:55:34;;;;;;;12.00;4.57;;;;;;;;;;5093022;28;20043;-71
2023/08/29 06:58:04;;;;;;;9.20;4.13;;;;;;;;;;5093007;28;20128;-70
2023/08/29 07:00:33;;;;;;;13.90;7.90;;;;;;;;;;5092992;28;20040;-69
2023/08/29 07:03:00;;;;;;;14.40;4.82;;;;;;;;;;5092955;28;20505;-69
2023/08/29 07:05:28;;;;;;;18.33;4.53;;;;;;;;;;5092853;28;20048;-70
2023/08/29 07:07:56;;;;;;;8.43;4.20;;;;;;;;;;5091735;28;20028;-71
2023/08/29 07:10:24;;;;;;;12.57;4.13;;;;;;;;;;5092897;28;20087;-72
2023/08/29 07:12:51;;;;;;;15.00;5.43;;;;;;;;;;5092899;28;20040;-71
2023/08/29 07:15:19;;;;;;;11.63;4.63;;;;;;;;;;5091424;28;20448;-71
2023/08/29 07:17:46;;;;;;;14.20;4.30;;;;;;;;;;5091512;28;20040;-71
2023/08/29 07:20:15;;;;;;;10.88;4.20;;;;;;;;;;5092753;28;20040;-72
2023/08/29 07:22:43;;;;;;;16.15;4.10;;;;;;;;;;5092752;28;20047;-71
2023/08/29 07:25:11;;;;;;;20.58;5.85;;;;;;;;;;5092429;28;20058;-71
2023/08/29 07:27:38;;;;;;;8.10;3.63;;;;;;;;;;5092598;28;20040;-70
2023/08/29 07:30:06;;;;;;;6.50;3.42;;;;;;;;;;5092586;28;20047;-71
2023/08/29 07:32:34;;;;;;;8.73;3.15;;;;;;;;;;5092680;28;20036;-70
2023/08/29 07:35:02;;;;;;;13.75;4.03;;;;;;;;;;5092427;28;20123;-70
2023/08/29 07:37:30;;;;;;;9.48;3.40;;;;;;;;;;5092518;28;20055;-71
2023/08/29 07:39:57;;;;;;;14.93;3.72;;;;;;;;;;5092546;28;20063;-72
2023/08/29 07:42:25;;;;;;;20.25;4.20;;;;;;;;;;5092820;28;20044;-71
2023/08/29 07:44:52;;;;;;;19.05;3.35;;;;;;;;;;5092507;28;20086;-70
2023/08/29 07:47:20;;;;;;;13.27;3.55;;;;;;;;;;5093918;28;20512;-71
2023/08/29 07:49:47;;;;;;;8.40;2.83;;;;;;;;;;5096585;28;20481;-69
2023/08/29 07:52:15;;;;;;;10.43;3.00;;;;;;;;;;5096578;28;20036;-71
2023/08/29 07:54:42;;;;;;;10.43;3.33;;;;;;;;;;5096523;28;20116;-70
2023/08/29 07:57:10;;;;;;;14.32;3.40;;;;;;;;;;5096377;28;20456;-71
2023/08/29 07:59:38;;;;;;;13.35;3.38;;;;;;;;;;5096276;28;20044;-69
2023/08/29 08:02:06;;;;;;;9.18;3.17;;;;;;;;;;5096241;28;20040;-72
2023/08/29 08:04:33;;;;;;;10.38;2.80;;;;;;;;;;5096238;28;20393;-71
2023/08/29 08:07:01;;;;;;;23.67;3.70;;;;;;;;;;5095409;28;20553;-71
2023/08/29 08:09:28;;;;;;;14.93;3.90;;;;;;;;;;5095519;28;20385;-69
2023/08/29 08:11:56;;;;;;;15.65;3.60;;;;;;;;;;5096114;28;20061;-71
2023/08/29 08:14:24;;;;;;;11.85;3.10;;;;;;;;;;5096073;28;20047;-70
2023/08/29 08:16:51;;;;;;;7.22;3.38;;;;;;;;;;5096042;28;20044;-70
2023/08/29 08:19:19;;;;;;;12.20;4.40;;;;;;;;;;5095925;28;20093;-70
2023/08/29 08:21:46;;;;;;;10.35;3.80;;;;;;;;;;5095235;28;20036;-74
2023/08/29 08:24:17;;;;;;;13.20;4.93;;;;;;;;;;5095302;28;20048;-71
2023/08/29 08:26:44;;;;;;;9.88;4.00;;;;;;;;;;5095609;28;20040;-71
2023/08/29 08:29:12;;;;;;;12.48;3.60;;;;;;;;;;5091821;28;20040;-70
2023/08/29 08:31:39;;;;;;;9.15;3.97;;;;;;;;;;5094699;28;20044;-69
2023/08/29 08:34:07;;;;;;;10.13;3.70;;;;;;;;;;5095569;28;20048;-69
2023/08/29 08:36:35;;;;;;;10.38;3.85;;;;;;;;;;5095964;28;20051;-70
2023/08/29 08:39:03;;;;;;;11.68;3.80;;;;;;;;;;5096005;28;20050;-72
2023/08/29 08:41:32;;;;;;;7.45;3.50;;;;;;;;;;5096102;28;20040;-71
2023/08/29 08:44:03;;;;;;;7.00;3.40;;;;;;;;;;5094694;28;20089;-72
2023/08/29 08:46:31;;;;;;;6.63;3.53;;;;;;;;;;5095708;28;20069;-72
2023/08/29 08:48:59;;;;;;;12.82;4.18;;;;;;;;;;5095485;28;20501;-70
2023/08/29 08:51:29;;;;;;;8.90;3.38;;;;;;;;;;5095134;28;20119;-70
2023/08/29 08:53:57;;;;;;;8.18;3.83;;;;;;;;;;5095561;28;20044;-69
2023/08/29 08:56:25;;;;;;;10.88;4.50;;;;;;;;;;5094065;28;20393;-72
2023/08/29 08:58:52;;;;;;;10.50;4.40;;;;;;;;;;5094505;28;20052;-70
2023/08/29 09:01:20;;;;;;;10.13;4.25;;;;;;;;;;5095158;28;20081;-70
2023/08/29 09:03:47;;;;;;;6.47;3.70;;;;;;;;;;5095243;28;20044;-72
2023/08/29 09:06:15;;;;;;;10.05;3.90;;;;;;;;;;5093813;28;20040;-72
2023/08/29 09:08:43;;;;;;;8.82;4.00;;;;;;;;;;5095079;28;20404;-72
2023/08/29 09:11:11;;;;;;;7.85;3.70;;;;;;;;;;5095056;28;20040;-72
2023/08/29 09:13:48;;;;;;;9.90;3.90;;;;;;;;;;5094999;28;20044;-71
2023/08/29 09:16:16;;;;;;;6.43;3.97;;;;;;;;;;5093884;28;20543;-68
2023/08/29 09:18:44;;;;;;;9.27;4.30;;;;;;;;;;5094992;28;20532;-70
2023/08/29 09:21:23;;;;;;;7.10;4.47;;;;;;;;;;5094872;28;20040;-70
2023/08/29 09:23:52;;;;;;;8.95;4.35;;;;;;;;;;5094736;28;20048;-71
2023/08/29 09:26:19;;;;;;;7.55;3.97;;;;;;;;;;5094626;28;20466;-70
2023/08/29 09:28:48;;;;;;;12.05;3.97;;;;;;;;;;5094757;28;20090;-70
2023/08/29 09:31:16;;;;;;;6.32;4.00;;;;;;;;;;5094625;28;20039;-72
2023/08/29 09:33:44;;;;;;;7.15;4.00;;;;;;;;;;5094051;28;20036;-71
2023/08/29 09:36:12;;;;;;;12.63;4.32;;;;;;;;;;5092971;28;20070;-70
2023/08/29 09:38:41;;;;;;;11.02;4.13;;;;;;;;;;5094508;28;20036;-71
2023/08/29 09:41:15;;;;;;;7.88;3.90;;;;;;;;;;5093403;28;20472;-70
2023/08/29 09:43:47;;;;;;;8.82;4.15;;;;;;;;;;5094383;28;20428;-72
2023/08/29 09:46:21;;;;;;;10.13;4.15;;;;;;;;;;5094208;28;20055;-72
2023/08/29 09:48:55;;;;;;;8.30;4.43;;;;;;;;;;5094093;28;20397;-71
2023/08/29 09:51:27;;;;;;;7.13;4.40;;;;;;;;;;5094084;28;20063;-71
2023/08/29 09:53:57;;;;;;;8.98;4.60;;;;;;;;;;5094206;28;20060;-70
2023/08/29 09:56:27;;;;;;;14.20;5.35;;;;;;;;;;5094165;28;20044;-69
2023/08/29 09:58:56;;;;;;;13.02;4.85;;;;;;;;;;5094338;28;20060;-70
2023/08/29 10:01:25;;;;;;;11.77;4.53;;;;;;;;;;5094030;28;20040;-70
2023/08/29 10:03:52;;;;;;;7.40;4.47;;;;;;;;;;5093915;28;20129;-68
2023/08/29 10:06:20;;;;;;;6.20;4.18;;;;;;;;;;5093905;28;20127;-68
2023/08/29 10:08:53;;;;;;;11.93;4.50;;;;;;;;;;5093862;28;20032;-67
2023/08/29 10:11:22;;;;;;;7.72;5.07;;;;;;;;;;5093953;28;20052;-68
2023/08/29 10:13:50;;;;;;;6.63;4.47;;;;;;;;;;5093811;28;20562;-70
2023/08/29 10:16:19;;;;;;;9.50;6.45;;;;;;;;;;5093866;28;20036;-69
2023/08/29 10:18:46;;;;;;;10.35;6.18;;;;;;;;;;5093881;28;20072;-68
2023/08/29 10:21:15;;;;;;;9.95;5.68;;;;;;;;;;5093665;28;20044;-70
2023/08/29 10:23:42;;;;;;;6.90;4.90;;;;;;;;;;5093531;28;20044;-71
2023/08/29 10:26:10;;;;;;;11.50;4.70;;;;;;;;;;5093466;28;20508;-71
2023/08/29 10:28:39;;;;;;;23.13;6.30;;;;;;;;;;5092442;28;20581;-67
2023/08/29 10:31:06;;;;;;;10.27;4.78;;;;;;;;;;5093418;28;20129;-69
2023/08/29 10:33:36;;;;;;;8.13;4.80;;;;;;;;;;5093357;28;20079;-70
2023/08/29 10:36:06;;;;;;;9.35;4.50;;;;;;;;;;5093172;28;20501;-69
2023/08/29 10:38:38;;;;;;;11.75;5.07;;;;;;;;;;5093610;28;20390;-68
2023/08/29 10:41:10;;;;;;;7.43;4.40;;;;;;;;;;5093356;28;20093;-68
2023/08/29 10:43:38;;;;;;;9.68;5.38;;;;;;;;;;5093279;28;20511;-68
2023/08/29 10:46:12;;;;;;;6.93;5.00;;;;;;;;;;5093199;28;20044;-70
2023/08/29 10:48:43;;;;;;;9.98;4.70;;;;;;;;;;5091734;28;20037;-67
2023/08/29 10:51:12;;;;;;;10.98;4.93;;;;;;;;;;5093174;28;20051;-68
2023/08/29 10:53:45;;;;;;;14.75;5.05;;;;;;;;;;5093125;28;20093;-67
2023/08/29 10:56:13;;;;;;;9.73;4.57;;;;;;;;;;5093051;28;20044;-70
2023/08/29 10:58:42;;;;;;;11.85;4.55;;;;;;;;;;5091763;28;20048;-67
2023/08/29 11:01:28;;;;;;;8.32;4.45;;;;;;;;;;5093023;28;20089;-67
2023/08/29 11:03:56;;;;;;;10.70;4.70;;;;;;;;;;5092809;28;20044;-69
2023/08/29 11:06:25;;;;;;;8.88;4.10;;;;;;;;;;5091599;28;20052;-66
2023/08/29 11:09:12;;;;;;;11.95;4.38;;;;;;;;;;5092811;28;20036;-67
2023/08/29 11:11:40;;;;;;;9.48;4.50;;;;;;;;;;5092593;28;20036;-67
2023/08/29 11:14:07;;;;;;;8.77;4.68;;;;;;;;;;5092756;28;20489;-67
2023/08/29 11:16:37;;;;;;;9.75;4.97;;;;;;;;;;5092820;28;20086;-67
2023/08/29 11:19:11;;;;;;;10.73;4.50;;;;;;;;;;5092773;28;20056;-70
2023/08/29 11:21:39;;;;;;;7.65;4.53;;;;;;;;;;5092222;28;20040;-67
2023/08/29 11:24:07;;;;;;;9.35;4.40;;;;;;;;;;5092521;28;20101;-68
2023/08/29 11:26:39;;;;;;;7.80;4.50;;;;;;;;;;5092798;28;20482;-70
2023/08/29 11:29:07;;;;;;;7.05;4.13;;;;;;;;;;5092691;28;20039;-69
2023/08/29 11:31:42;;;;;;;8.50;4.40;;;;;;;;;;5092593;28;20055;-70
2023/08/29 11:34:13;;;;;;;6.72;4.55;;;;;;;;;;5092648;28;20036;-69
2023/08/29 11:36:44;;;;;;;6.93;4.50;;;;;;;;;;5091352;28;20055;-68
2023/08/29 11:39:12;;;;;;;5.07;4.10;;;;;;;;;;5092560;28;20062;-68
2023/08/29 11:41:44;;;;;;;10.45;4.93;;;;;;;;;;5091300;28;20075;-68
2023/08/29 11:44:34;;;;;;;8.35;4.60;;;;;;;;;;5092522;28;20036;-69
2023/08/29 11:47:23;;;;;;;12.13;4.75;;;;;;;;;;5092381;28;20474;-69
2023/08/29 11:49:52;;;;;;;11.02;4.50;;;;;;;;;;5091647;28;20032;-69
2023/08/29 11:52:19;;;;;;;11.18;5.47;;;;;;;;;;5092489;28;20389;-68
2023/08/29 11:54:48;;;;;;;13.88;5.03;;;;;;;;;;5092421;28;20477;-68
2023/08/29 11:57:16;;;;;;;6.28;4.38;;;;;;;;;;5092367;28;20485;-69
2023/08/29 11:59:44;;;;;;;10.10;4.50;;;;;;;;;;5092338;28;20040;-68
2023/08/29 12:02:16;;;;;;;8.13;4.60;;;;;;;;;;5092375;28;20530;-69
2023/08/29 12:04:47;;;;;;;10.00;5.20;;;;;;;;;;5091473;28;20101;-66
2023/08/29 12:07:16;;;;;;;7.32;5.00;;;;;;;;;;5090796;28;20499;-66
2023/08/29 12:09:44;;;;;;;12.57;4.93;;;;;;;;;;5092126;28;20040;-69
2023/08/29 12:12:32;;;;;;;6.68;4.80;;;;;;;;;;5090988;28;20051;-67
2023/08/29 12:15:00;;;;;;;6.45;4.53;;;;;;;;;;5092280;28;20093;-66
2023/08/29 12:17:38;;;;;;;7.93;4.40;;;;;;;;;;5092227;28;20044;-68
2023/08/29 12:20:12;;;;;;;15.23;4.65;;;;;;;;;;5092168;28;20043;-68
2023/08/29 12:22:45;;;;;;;9.45;4.72;;;;;;;;;;5092152;28;20039;-67
2023/08/29 12:25:13;;;;;;;15.40;5.90;;;;;;;;;;5091789;28;20135;-67
2023/08/29 12:27:40;;;;;;;7.70;4.70;;;;;;;;;;5091582;28;20040;-66
2023/08/29 12:30:13;;;;;;;9.10;4.60;;;;;;;;;;5091895;28;20075;-66
2023/08/29 12:32:42;;;;;;;10.23;4.32;;;;;;;;;;5075936;28;20076;-67
2023/08/29 12:35:11;;;;;;;6.75;4.40;;;;;;;;;;5068149;28;20060;-68
2023/08/29 12:37:39;;;;;;;9.20;4.20;;;;;;;;;;5072327;28;20049;-70
2023/08/29 12:40:08;;;;;;;13.30;4.30;;;;;;;;;;5087741;28;20040;-68
2023/08/29 12:42:37;;;;;;;7.93;4.22;;;;;;;;;;5078260;28;20040;-67
2023/08/29 12:45:06;;;;;;;10.07;4.10;;;;;;;;;;5089176;28;20035;-71
2023/08/29 12:47:33;;;;;;;6.43;4.07;;;;;;;;;;5089567;28;20482;-66
2023/08/29 12:50:01;;;;;;;11.93;4.43;;;;;;;;;;5075155;28;20051;-67
2023/08/29 12:52:28;;;;;;;6.53;4.40;;;;;;;;;;5089374;28;20032;-67
2023/08/29 12:54:56;;;;;;;9.50;5.05;;;;;;;;;;5089341;28;20151;-67
2023/08/29 12:57:23;;;;;;;11.15;4.93;;;;;;;;;;5088743;28;20044;-67
2023/08/29 12:59:51;;;;;;;6.30;4.10;;;;;;;;;;5089999;28;20040;-67
2023/08/29 13:02:19;;;;;;;10.57;4.20;;;;;;;;;;5088261;28;20147;-69
2023/08/29 13:04:46;;;;;;;6.90;4.03;;;;;;;;;;5089613;28;20036;-69
2023/08/29 13:07:14;;;;;;;10.25;4.53;;;;;;;;;;5075473;28;20794;-69
2023/08/29 13:09:43;;;;;;;10.93;4.53;;;;;;;;;;5089437;28;20044;-68
2023/08/29 13:12:11;;;;;;;8.75;4.68;;;;;;;;;;5089760;28;20075;-70
2023/08/29 13:14:38;;;;;;;9.23;4.75;;;;;;;;;;5089423;28;20028;-68
2023/08/29 13:17:07;;;;;;;13.43;7.72;;;;;;;;;;5089443;28;20044;-69
2023/08/29 13:19:39;;;;;;;6.55;3.80;;;;;;;;;;5089500;28;20064;-69
2023/08/29 13:22:07;;;;;;;11.60;4.55;;;;;;;;;;5089191;28;20113;-70
2023/08/29 13:24:35;;;;;;;12.52;4.90;;;;;;;;;;5088983;28;20048;-71
2023/08/29 13:27:04;;;;;;;10.25;4.05;;;;;;;;;;5089217;28;20082;-71
2023/08/29 13:29:31;;;;;;;8.70;4.05;;;;;;;;;;5089206;28;20112;-70
2023/08/29 13:32:00;;;;;;;11.40;5.05;;;;;;;;;;5089137;28;20053;-70
2023/08/29 13:34:27;;;;;;;7.45;4.28;;;;;;;;;;5089240;28;20043;-70
2023/08/29 13:36:55;;;;;;;5.55;3.80;;;;;;;;;;5089423;28;20090;-70
2023/08/29 13:39:22;;;;;;;7.18;4.20;;;;;;;;;;5086028;28;20040;-70
2023/08/29 13:41:50;;;;;;;11.32;4.28;;;;;;;;;;5088085;28;20071;-69
2023/08/29 13:44:18;;;;;;;11.13;4.28;;;;;;;;;;5088693;28;20040;-69
2023/08/29 13:46:45;;;;;;;8.05;4.05;;;;;;;;;;5088628;28;20052;-81
2023/08/29 13:49:13;;;;;;;7.32;4.38;;;;;;;;;;5089311;28;20068;-78
2023/08/29 13:51:41;;;;;;;4.93;3.80;;;;;;;;;;5088957;28;20055;-78
2023/08/29 13:54:08;;;;;;;9.48;4.22;;;;;;;;;;5088949;28;20039;-78
2023/08/29 13:56:36;;;;;;;9.77;4.03;;;;;;;;;;5088508;28;20079;-77
2023/08/29 13:59:04;;;;;;;9.77;4.07;;;;;;;;;;5088738;28;20040;-77
2023/08/29 14:01:31;;;;;;;7.03;3.97;;;;;;;;;;5088963;28;20039;-78
2023/08/29 14:04:02;;;;;;;10.77;4.05;;;;;;;;;;5088513;28;20048;-79
2023/08/29 14:06:29;;;;;;;6.80;4.13;;;;;;;;;;5088564;28;20040;-80
2023/08/29 14:08:57;;;;;;;5.90;4.18;;;;;;;;;;5089272;28;20036;-80
2023/08/29 14:11:25;;;;;;;8.65;3.50;;;;;;;;;;5088720;28;20159;-76
2023/08/29 14:13:52;;;;;;;6.75;3.80;;;;;;;;;;5088251;28;20504;-77
2023/08/29 14:16:20;;;;;;;6.65;4.00;;;;;;;;;;5088898;28;20044;-77
2023/08/29 14:18:48;;;;;;;9.43;4.10;;;;;;;;;;5088499;28;20047;-78
2023/08/29 14:21:16;;;;;;;9.45;4.32;;;;;;;;;;5088104;28;20047;-80
2023/08/29 14:23:45;;;;;;;7.43;3.85;;;;;;;;;;5089854;28;20664;-78
2023/08/29 14:26:13;;;;;;;5.72;4.30;;;;;;;;;;5087311;28;20466;-80
2023/08/29 14:28:40;;;;;;;12.48;4.43;;;;;;;;;;5087608;28;20105;-79
2023/08/29 14:31:08;;;;;;;7.35;3.85;;;;;;;;;;5088337;28;20401;-81
2023/08/29 14:33:37;;;;;;;10.50;3.92;;;;;;;;;;5087855;28;20051;-79
2023/08/29 14:36:05;;;;;;;7.07;4.38;;;;;;;;;;5088734;28;21521;-78
2023/08/29 14:38:32;;;;;;;7.75;4.25;;;;;;;;;;5087511;28;20665;-79
2023/08/29 14:41:10;;;;;;;8.38;4.20;;;;;;;;;;5076430;28;20048;-79
2023/08/29 14:43:38;;;;;;;9.30;4.30;;;;;;;;;;5087079;28;20032;-78
2023/08/29 14:46:06;;;;;;;10.70;4.10;;;;;;;;;;5088138;28;20473;-79
2023/08/29 14:48:37;;;;;;;13.68;4.15;;;;;;;;;;5074434;28;20036;-81